Pagina principală
METAR-TAF:

METAR-TAF

Aeroporturi :

Lae, Papua-Noua Guinee

Latitudine: 6-34-11S, longitudine: 146-43-34E, elevație: 73 m

Observații meteo curente

Raportul a fost făcut în urmă cu 9 ore și 43 de minute, la 06:00 UTC
Vânt 17 kt de la Est/Sud-est
Temperatură 31°C
Umiditate 63%
Presiune 1002 hPa
Vizibilitate de 10 km sau mai mult
Nori puțini la o înălțime de 3000 picior
Nori împrăștiați la o înălțime de 8000 picior

METAR: AYNZ 180600Z 11017KT 9999 FEW030 SCT080 31/23 Q1002

Ora: 01:43 (15:43 UTC)


TAF: lipsă

Observații și prognoze meteo pentru peste 4.000 de aeroporturi (rapoarte METAR și TAF).

Stațiile disponibile sunt reprezentate pe hartă prin puncte galbene și roșii.

Țineți indicatorul mouse-ului pe punctul dorit pentru a vedea denumirea stației.

Apoi, faceți clic pentru a vedea observațiile și prognozele meteorologice.

Pentru a schimba harta: Pentru mărire, faceți clic pe butoanele verzi cu cruce neagră; pentru micșorare, pe butonul verde cu o liniuță; pentru hărți învecinate, pe săgețile verzi.


METAR-TAF: